Time;durP1;ratioP1;P1;durP2;ratioP2;P2;SDS_P1;SDS_P2;PMS_P1;PMS_P2;Temp;Humidity;BMP_temperature;BMP_pressure;BME280_temperature;BME280_humidity;BME280_pressure;Samples;Min_cycle;Max_cycle;Signal;HPM_P1;HPM_P2
2024/03/13 00:00:45;;;;;;;0.35;0.35;;;;;;;6.64;100.00;99129.50;5057242;28;20117;-58
2024/03/13 00:03:13;;;;;;;0.40;0.40;;;;;;;6.74;100.00;99129.00;5075880;28;20048;-58
2024/03/13 00:05:40;;;;;;;0.30;0.30;;;;;;;6.76;100.00;99127.75;5056381;28;20045;-58
2024/03/13 00:08:08;;;;;;;0.30;0.30;;;;;;;6.68;100.00;99123.53;5057832;28;20060;-58
2024/03/13 00:10:34;;;;;;;0.30;0.30;;;;;;;6.72;100.00;99125.78;5051529;28;20049;-58
2024/03/13 00:13:01;;;;;;;0.30;0.30;;;;;;;6.89;100.00;99132.16;5047495;28;20037;-58
2024/03/13 00:15:31;;;;;;;0.20;0.20;;;;;;;6.85;100.00;99125.63;5055619;28;20515;-58
2024/03/13 00:17:58;;;;;;;0.40;0.40;;;;;;;6.72;100.00;99128.44;5055551;28;20147;-58
2024/03/13 00:20:26;;;;;;;0.30;0.30;;;;;;;6.79;100.00;99126.50;5048138;28;20091;-58
2024/03/13 00:22:53;;;;;;;0.40;0.40;;;;;;;6.76;100.00;99122.44;5046367;28;20053;-58
2024/03/13 00:25:20;;;;;;;0.20;0.20;;;;;;;6.77;100.00;99115.28;5060512;28;20070;-58
2024/03/13 00:27:47;;;;;;;0.40;0.40;;;;;;;6.74;100.00;99129.00;5059283;28;20052;-58
2024/03/13 00:30:15;;;;;;;0.30;0.30;;;;;;;6.73;100.00;99122.06;5055751;28;20450;-58
2024/03/13 00:32:44;;;;;;;0.30;0.30;;;;;;;6.71;100.00;99124.94;5049392;28;20049;-58
2024/03/13 00:35:13;;;;;;;0.22;0.22;;;;;;;6.76;100.00;99118.97;5054563;28;20119;-58
2024/03/13 00:37:40;;;;;;;0.30;0.30;;;;;;;6.84;100.00;99126.66;5066658;28;20564;-58
2024/03/13 00:40:09;;;;;;;0.30;0.30;;;;;;;6.81;100.00;99122.59;5055657;28;20601;-58
2024/03/13 00:42:36;;;;;;;0.30;0.30;;;;;;;6.74;100.00;99131.69;5065455;28;20049;-58
2024/03/13 00:45:03;;;;;;;0.40;0.40;;;;;;;6.75;100.00;99125.34;5052477;28;20059;-58
2024/03/13 00:47:30;;;;;;;0.40;0.40;;;;;;;6.73;100.00;99133.53;5055368;28;20136;-58
2024/03/13 00:49:59;;;;;;;0.38;0.38;;;;;;;6.83;100.00;99127.72;5056706;28;20123;-58
2024/03/13 00:52:27;;;;;;;0.30;0.30;;;;;;;6.92;100.00;99131.72;5052641;28;20127;-57
2024/03/13 00:54:53;;;;;;;0.32;0.32;;;;;;;6.89;100.00;99140.16;5048736;28;20041;-58
2024/03/13 00:57:20;;;;;;;0.30;0.30;;;;;;;6.90;100.00;99131.13;5059485;28;20058;-58
2024/03/13 00:59:47;;;;;;;0.35;0.35;;;;;;;6.86;100.00;99128.09;5050969;28;20041;-58
2024/03/13 01:02:15;;;;;;;0.30;0.30;;;;;;;6.82;100.00;99132.22;5047902;28;20140;-58
2024/03/13 01:04:42;;;;;;;0.25;0.25;;;;;;;6.82;100.00;99134.06;5057442;28;20235;-58
2024/03/13 01:07:12;;;;;;;0.30;0.30;;;;;;;6.80;100.00;99130.81;5055000;28;20071;-58
2024/03/13 01:09:39;;;;;;;0.30;0.30;;;;;;;6.81;100.00;99129.78;5051047;28;20044;-58
2024/03/13 01:12:07;;;;;;;0.30;0.30;;;;;;;6.86;100.00;99127.25;5052468;28;20068;-58
2024/03/13 01:14:34;;;;;;;0.35;0.35;;;;;;;6.81;100.00;99119.13;5048165;28;20471;-58
2024/03/13 01:17:02;;;;;;;0.30;0.30;;;;;;;6.88;100.00;99122.53;5055017;28;20052;-59
2024/03/13 01:19:33;;;;;;;0.30;0.30;;;;;;;6.85;100.00;99130.97;5052171;28;20036;-58
2024/03/13 01:22:05;;;;;;;0.30;0.30;;;;;;;6.83;100.00;99117.84;5050284;28;20141;-58
2024/03/13 01:24:33;;;;;;;0.30;0.30;;;;;;;6.83;100.00;99120.53;5059073;28;20064;-58
2024/03/13 01:27:00;;;;;;;0.40;0.40;;;;;;;6.85;100.00;99120.31;5056482;28;20175;-58
2024/03/13 01:29:27;;;;;;;0.30;0.30;;;;;;;6.77;100.00;99112.63;5045549;28;20099;-58
2024/03/13 01:31:56;;;;;;;0.32;0.32;;;;;;;6.81;100.00;99113.78;5058879;28;20589;-58
2024/03/13 01:34:24;;;;;;;0.30;0.30;;;;;;;6.74;100.00;99119.19;5047970;28;20037;-58
2024/03/13 01:39:38;;;;;;;0.30;0.30;;;;;;;6.82;100.00;99118.09;5065391;28;20043;-58
2024/03/13 01:56:21;;;;;;;0.30;0.30;;;;;;;6.87;100.00;99116.41;5045350;28;20041;-57
2024/03/13 01:58:51;;;;;;;0.30;0.30;;;;;;;6.93;100.00;99114.69;5051975;28;20045;-57
2024/03/13 02:04:05;;;;;;;0.30;0.30;;;;;;;6.90;100.00;99117.81;5034384;28;20048;-57
2024/03/13 02:06:32;;;;;;;0.40;0.40;;;;;;;6.83;100.00;99122.38;5055633;28;20500;-58
2024/03/13 02:08:59;;;;;;;0.40;0.40;;;;;;;6.84;100.00;99119.50;5050704;28;20037;-57
2024/03/13 02:11:27;;;;;;;0.30;0.30;;;;;;;6.84;100.00;99114.19;5048395;28;20043;-57
2024/03/13 02:13:55;;;;;;;0.30;0.30;;;;;;;6.75;100.00;99122.66;5048009;28;20048;-60
2024/03/13 02:16:22;;;;;;;0.30;0.30;;;;;;;6.80;100.00;99117.50;5051982;28;20053;-57
2024/03/13 02:18:50;;;;;;;0.30;0.30;;;;;;;6.96;100.00;99116.91;5053951;28;20242;-57
2024/03/13 02:21:17;;;;;;;0.40;0.40;;;;;;;6.97;100.00;99105.22;5051011;28;20065;-57
2024/03/13 02:23:45;;;;;;;0.30;0.30;;;;;;;6.96;100.00;99111.56;5049774;28;20489;-57
2024/03/13 02:26:12;;;;;;;0.30;0.30;;;;;;;6.90;100.00;99113.28;5044714;28;20044;-58
2024/03/13 02:28:39;;;;;;;0.30;0.30;;;;;;;7.03;100.00;99116.84;5029326;28;20049;-57
2024/03/13 02:31:07;;;;;;;0.32;0.32;;;;;;;7.01;100.00;99109.06;5036668;28;20757;-57
2024/03/13 02:33:34;;;;;;;0.40;0.40;;;;;;;7.15;100.00;99114.25;5033329;28;20139;-57
2024/03/13 02:36:03;;;;;;;0.30;0.30;;;;;;;7.02;100.00;99108.03;5030859;28;20041;-57
2024/03/13 02:38:30;;;;;;;0.30;0.30;;;;;;;6.97;100.00;99107.88;5032576;28;20130;-57
2024/03/13 02:40:58;;;;;;;0.40;0.40;;;;;;;7.00;100.00;99111.97;5038579;28;20122;-57
2024/03/13 02:43:25;;;;;;;0.30;0.30;;;;;;;7.00;100.00;99111.97;5038897;28;20198;-57
2024/03/13 02:45:52;;;;;;;0.30;0.30;;;;;;;7.08;100.00;99112.47;5034390;28;20082;-57
2024/03/13 02:48:19;;;;;;;0.30;0.30;;;;;;;7.00;100.00;99103.97;5035498;28;20651;-57
2024/03/13 02:50:46;;;;;;;0.30;0.30;;;;;;;7.13;100.00;99107.28;5027957;28;20041;-58
2024/03/13 02:53:13;;;;;;;0.35;0.35;;;;;;;6.97;100.00;99107.88;5062017;28;20049;-57
2024/03/13 02:55:43;;;;;;;0.30;0.30;;;;;;;6.90;100.00;99109.81;5036339;28;20147;-59
2024/03/13 02:58:10;;;;;;;0.40;0.40;;;;;;;7.04;100.00;99113.97;5029290;28;20132;-57
2024/03/13 03:00:37;;;;;;;0.30;0.30;;;;;;;6.87;100.00;99107.59;5070012;28;20040;-57
2024/03/13 03:03:04;;;;;;;0.30;0.30;;;;;;;6.91;100.00;99108.75;5031689;28;20037;-57
2024/03/13 03:05:32;;;;;;;0.40;0.40;;;;;;;7.08;100.00;99104.47;5033660;28;20148;-57
2024/03/13 03:08:00;;;;;;;0.30;0.30;;;;;;;7.15;100.00;99108.94;5035192;28;20068;-57
2024/03/13 03:10:27;;;;;;;0.30;0.30;;;;;;;7.21;100.00;99100.03;5036901;28;20045;-57
2024/03/13 03:12:54;;;;;;;0.30;0.30;;;;;;;7.19;100.00;99104.75;5033145;28;20048;-57
2024/03/13 03:15:23;;;;;;;0.30;0.30;;;;;;;7.11;100.00;99103.22;5032098;28;20056;-57
2024/03/13 03:17:53;;;;;;;0.30;0.30;;;;;;;7.16;100.00;99099.88;5038587;28;20118;-57
2024/03/13 03:20:20;;;;;;;0.28;0.28;;;;;;;7.09;100.00;99095.44;5048812;28;20751;-56
2024/03/13 03:22:48;;;;;;;0.30;0.30;;;;;;;7.15;100.00;99103.59;5036204;28;20051;-57
2024/03/13 03:25:15;;;;;;;0.38;0.38;;;;;;;7.16;100.00;99102.53;5082156;28;20101;-57
2024/03/13 03:27:42;;;;;;;0.30;0.30;;;;;;;6.91;100.00;99108.75;5044444;28;20129;-57
2024/03/13 03:30:11;;;;;;;0.30;0.30;;;;;;;7.09;100.00;99106.13;5048071;28;20075;-57
2024/03/13 03:32:39;;;;;;;0.38;0.38;;;;;;;7.13;100.00;99107.28;5043441;28;20496;-57
2024/03/13 03:35:07;;;;;;;0.40;0.40;;;;;;;7.05;100.00;99112.91;5045542;28;20136;-57
2024/03/13 03:37:34;;;;;;;0.30;0.30;;;;;;;7.09;100.00;99100.78;5045922;28;20795;-57
2024/03/13 03:40:02;;;;;;;0.35;0.35;;;;;;;7.05;100.00;99115.56;5047595;28;20048;-57
2024/03/13 03:42:30;;;;;;;0.30;0.30;;;;;;;7.17;100.00;99113.00;5042051;28;20048;-57
2024/03/13 03:44:57;;;;;;;0.30;0.30;;;;;;;7.18;100.00;99111.13;5047114;28;20129;-57
2024/03/13 03:47:24;;;;;;;0.30;0.30;;;;;;;7.16;100.00;99116.69;5036673;28;20056;-57
2024/03/13 03:49:51;;;;;;;0.40;0.40;;;;;;;7.17;100.00;99117.53;5041054;28;20036;-57
2024/03/13 03:52:18;;;;;;;0.40;0.40;;;;;;;7.12;100.00;99116.31;5072966;28;20094;-57
2024/03/13 03:54:45;;;;;;;0.30;0.30;;;;;;;7.16;100.00;99121.19;5034906;28;20095;-57
2024/03/13 03:57:13;;;;;;;0.40;0.40;;;;;;;7.10;100.00;99113.06;5041396;28;20107;-57
2024/03/13 03:59:40;;;;;;;0.30;0.30;;;;;;;7.16;100.00;99105.22;5052296;28;20094;-57
2024/03/13 04:02:07;;;;;;;0.40;0.40;;;;;;;7.04;100.00;99113.97;5034719;28;20052;-57
2024/03/13 04:04:34;;;;;;;0.30;0.30;;;;;;;7.17;100.00;99117.53;5037987;28;20033;-57
2024/03/13 04:07:01;;;;;;;0.30;0.30;;;;;;;7.15;100.00;99120.41;5054397;28;20051;-57
2024/03/13 04:09:28;;;;;;;0.40;0.40;;;;;;;7.19;100.00;99115.41;5037002;28;20122;-57
2024/03/13 04:11:55;;;;;;;0.38;0.38;;;;;;;7.06;100.00;99117.22;5037868;28;20457;-57
2024/03/13 04:14:22;;;;;;;0.30;0.30;;;;;;;7.19;100.00;99115.41;5034747;28;20545;-57
2024/03/13 04:16:49;;;;;;;0.30;0.30;;;;;;;7.24;100.00;99119.06;5042195;28;20036;-57
2024/03/13 04:19:18;;;;;;;0.38;0.38;;;;;;;7.18;100.00;99117.28;5034011;28;20065;-57
2024/03/13 04:21:46;;;;;;;0.40;0.40;;;;;;;7.25;100.00;99111.88;5038733;28;20502;-57
2024/03/13 04:24:14;;;;;;;0.43;0.43;;;;;;;7.30;100.00;99120.81;5007058;28;20049;-57
2024/03/13 04:26:41;;;;;;;0.30;0.30;;;;;;;7.28;100.00;99120.22;5036003;28;20051;-58
2024/03/13 04:29:10;;;;;;;0.30;0.30;;;;;;;7.17;100.00;99122.84;5063805;28;20045;-57
2024/03/13 04:31:39;;;;;;;0.30;0.30;;;;;;;7.23;100.00;99121.94;5038689;28;20040;-57
2024/03/13 04:34:07;;;;;;;0.30;0.30;;;;;;;7.22;100.00;99121.13;5037111;28;20850;-57
2024/03/13 04:36:36;;;;;;;0.40;0.40;;;;;;;7.22;100.00;99125.66;5038356;28;20440;-57
2024/03/13 04:39:05;;;;;;;0.30;0.30;;;;;;;7.28;100.00;99128.22;5033500;28;20529;-57
2024/03/13 04:41:33;;;;;;;0.30;0.30;;;;;;;7.24;100.00;99131.56;5038793;28;20052;-58
2024/03/13 04:44:00;;;;;;;0.22;0.22;;;;;;;7.30;100.00;99131.50;5031370;28;20033;-57
2024/03/13 04:46:28;;;;;;;0.30;0.30;;;;;;;7.21;100.00;99127.50;5034931;28;20424;-57
2024/03/13 04:48:55;;;;;;;0.30;0.30;;;;;;;7.24;100.00;99128.88;5039901;28;20087;-57
2024/03/13 04:51:22;;;;;;;0.30;0.30;;;;;;;7.23;100.00;99124.59;5029466;28;20080;-57
2024/03/13 04:53:49;;;;;;;0.30;0.30;;;;;;;7.25;100.00;99127.88;5032666;28;20049;-58
2024/03/13 04:56:16;;;;;;;0.30;0.30;;;;;;;7.19;100.00;99134.06;5040707;28;20040;-57
2024/03/13 04:58:46;;;;;;;0.40;0.40;;;;;;;7.19;100.00;99136.75;5039215;28;20052;-57
2024/03/13 05:01:18;;;;;;;0.40;0.40;;;;;;;7.24;100.00;99128.88;5038898;28;20143;-60
2024/03/13 05:03:46;;;;;;;0.30;0.30;;;;;;;7.30;100.00;99136.00;5024033;28;20072;-57
2024/03/13 05:06:13;;;;;;;0.22;0.22;;;;;;;7.39;100.00;99148.00;5036657;28;20114;-58
2024/03/13 05:08:41;;;;;;;0.30;0.30;;;;;;;7.24;100.00;99139.56;5036747;28;20048;-57
2024/03/13 05:11:09;;;;;;;0.30;0.30;;;;;;;7.20;100.00;99149.88;5031904;28;20528;-58
2024/03/13 05:13:38;;;;;;;0.40;0.40;;;;;;;7.22;100.00;99144.31;5029367;28;20389;-58
2024/03/13 05:16:06;;;;;;;0.30;0.30;;;;;;;7.27;100.00;99147.13;5032044;28;20041;-58
2024/03/13 05:18:34;;;;;;;0.30;0.30;;;;;;;7.27;100.00;99153.28;5026953;28;20155;-58
2024/03/13 05:21:01;;;;;;;0.30;0.30;;;;;;;7.49;100.00;99150.97;5028033;28;20049;-58
2024/03/13 05:23:29;;;;;;;0.25;0.25;;;;;;;7.29;100.00;99159.19;5039378;28;20109;-57
2024/03/13 05:25:59;;;;;;;0.15;0.15;;;;;;;7.22;100.00;99154.97;5030338;28;20430;-58
2024/03/13 05:28:28;;;;;;;0.30;0.30;;;;;;;7.29;100.00;99158.41;5035864;28;20068;-57
2024/03/13 05:30:55;;;;;;;0.40;0.40;;;;;;;7.27;100.00;99160.47;5040256;28;20044;-57
2024/03/13 05:33:25;;;;;;;0.30;0.30;;;;;;;7.30;100.00;99154.69;5012152;28;20498;-57
2024/03/13 05:35:52;;;;;;;0.32;0.32;;;;;;;7.20;100.00;99152.53;5036715;28;20037;-58
2024/03/13 05:38:19;;;;;;;0.38;0.38;;;;;;;7.24;100.00;99155.53;5041696;28;20045;-58
2024/03/13 05:40:47;;;;;;;0.40;0.40;;;;;;;7.22;100.00;99162.97;5032221;28;20044;-58
2024/03/13 05:43:14;;;;;;;0.30;0.30;;;;;;;6.97;100.00;99171.84;5015542;28;20045;-58
2024/03/13 05:45:41;;;;;;;0.38;0.38;;;;;;;7.15;100.00;99167.56;5034758;28;20045;-57
2024/03/13 05:48:08;;;;;;;0.40;0.40;;;;;;;7.29;100.00;99171.72;5039107;28;20588;-58
2024/03/13 05:50:35;;;;;;;0.30;0.30;;;;;;;7.31;100.00;99169.63;5072073;28;20048;-57
2024/03/13 05:53:03;;;;;;;0.30;0.30;;;;;;;7.18;100.00;99170.59;5019398;28;20135;-58
2024/03/13 05:55:31;;;;;;;0.40;0.40;;;;;;;7.41;100.00;99177.91;5033042;28;20146;-57
2024/03/13 05:57:58;;;;;;;0.30;0.30;;;;;;;7.36;100.00;99175.09;5040783;28;20135;-57
2024/03/13 06:00:26;;;;;;;0.28;0.28;;;;;;;7.43;100.00;99177.69;5035276;28;20510;-58
2024/03/13 06:02:53;;;;;;;0.30;0.30;;;;;;;7.30;100.00;99182.16;5040952;28;20056;-57
2024/03/13 06:05:21;;;;;;;0.30;0.30;;;;;;;7.44;100.00;99182.00;5028694;28;20045;-58
2024/03/13 06:07:55;;;;;;;0.30;0.30;;;;;;;7.25;100.00;99179.34;5043331;28;20090;-57
2024/03/13 06:10:22;;;;;;;0.20;0.20;;;;;;;7.46;100.00;99177.25;5035908;28;20493;-57
2024/03/13 06:12:49;;;;;;;0.30;0.30;;;;;;;7.47;100.00;99171.69;5059198;28;20148;-57
2024/03/13 06:15:16;;;;;;;0.30;0.30;;;;;;;7.63;100.00;99178.28;5032659;28;20045;-58
2024/03/13 06:17:45;;;;;;;0.30;0.30;;;;;;;7.69;100.00;99185.41;5041074;28;20122;-58
2024/03/13 06:20:13;;;;;;;0.20;0.20;;;;;;;7.73;100.00;99185.75;5015452;28;20454;-58
2024/03/13 06:22:40;;;;;;;0.30;0.30;;;;;;;7.79;100.00;99182.19;5031077;28;20043;-57
2024/03/13 06:25:08;;;;;;;0.30;0.30;;;;;;;7.84;100.00;99194.84;5029607;28;20041;-58
2024/03/13 06:27:35;;;;;;;0.30;0.30;;;;;;;7.87;100.00;99189.88;5035080;28;20041;-58
2024/03/13 06:30:02;;;;;;;0.40;0.40;;;;;;;7.93;100.00;99199.63;5035081;28;20041;-58
2024/03/13 06:32:29;;;;;;;0.30;0.30;;;;;;;7.91;100.00;99193.72;5026837;28;20048;-58
2024/03/13 06:34:56;;;;;;;0.30;0.30;;;;;;;8.06;100.00;99195.97;5063590;28;20032;-57
2024/03/13 06:37:24;;;;;;;0.30;0.30;;;;;;;7.93;100.00;99196.97;5033532;28;20123;-58
2024/03/13 06:39:51;;;;;;;0.20;0.20;;;;;;;7.98;100.00;99194.44;5036396;28;20051;-58
2024/03/13 06:42:18;;;;;;;0.20;0.20;;;;;;;8.04;100.00;99190.06;5030962;28;20080;-58
2024/03/13 06:44:45;;;;;;;0.20;0.20;;;;;;;8.09;100.00;99192.06;5030780;28;20483;-58
2024/03/13 06:47:12;;;;;;;0.20;0.20;;;;;;;8.02;100.00;99189.47;5041922;28;20051;-58
2024/03/13 06:49:40;;;;;;;0.30;0.30;;;;;;;8.16;100.00;99196.25;5034868;28;20203;-59
2024/03/13 06:52:07;;;;;;;0.30;0.30;;;;;;;8.19;100.00;99200.34;5034557;28;20062;-58
2024/03/13 06:54:36;;;;;;;0.30;0.30;;;;;;;8.40;100.00;99199.81;5037798;28;20666;-58
2024/03/13 06:57:03;;;;;;;0.30;0.30;;;;;;;8.32;100.00;99197.47;5044538;28;20047;-59
2024/03/13 06:59:30;;;;;;;0.20;0.20;;;;;;;8.52;100.00;99194.50;5023387;28;20411;-58
2024/03/13 07:02:00;;;;;;;0.30;0.30;;;;;;;8.58;100.00;99198.13;5038575;28;20071;-58
2024/03/13 07:04:27;;;;;;;0.30;0.30;;;;;;;8.63;100.00;99201.72;5031056;28;20045;-58
2024/03/13 07:06:57;;;;;;;0.15;0.15;;;;;;;8.47;100.00;99212.28;5043408;28;20159;-58
2024/03/13 07:09:25;;;;;;;0.30;0.30;;;;;;;8.62;100.00;99213.47;5038579;28;20044;-58
2024/03/13 07:11:53;;;;;;;0.30;0.30;;;;;;;8.59;100.00;99210.44;5030825;28;20094;-58
2024/03/13 07:14:20;;;;;;;0.20;0.20;;;;;;;8.54;100.00;99210.31;5040744;28;20147;-58
2024/03/13 07:16:47;;;;;;;0.30;0.30;;;;;;;8.48;100.00;99214.72;5040410;28;20049;-58
2024/03/13 07:19:14;;;;;;;0.20;0.20;;;;;;;8.68;100.00;99219.75;5028533;28;20534;-58
2024/03/13 07:21:43;;;;;;;0.20;0.20;;;;;;;8.65;100.00;99212.19;5035205;28;20048;-59
2024/03/13 07:24:11;;;;;;;0.20;0.20;;;;;;;8.64;100.00;99215.91;5029784;28;20037;-59
2024/03/13 07:26:38;;;;;;;0.20;0.20;;;;;;;8.68;100.00;99225.09;5043560;28;20041;-58
2024/03/13 07:29:06;;;;;;;0.20;0.20;;;;;;;8.68;100.00;99229.63;5041673;28;20202;-58
2024/03/13 07:31:33;;;;;;;0.20;0.20;;;;;;;8.79;100.00;99226.97;5019769;28;20049;-58
2024/03/13 07:34:00;;;;;;;0.20;0.20;;;;;;;8.70;100.00;99233.69;5048695;28;20040;-58
2024/03/13 07:36:29;;;;;;;0.30;0.30;;;;;;;8.78;100.00;99236.00;5038858;28;20135;-58
2024/03/13 07:38:59;;;;;;;0.22;0.22;;;;;;;8.91;100.00;99235.00;5046778;28;20056;-58
2024/03/13 07:41:26;;;;;;;0.30;0.30;;;;;;;9.08;100.00;99229.75;5036180;28;20135;-58
2024/03/13 07:43:53;;;;;;;0.30;0.30;;;;;;;8.99;100.00;99242.69;5040803;28;20051;-58
2024/03/13 07:46:20;;;;;;;0.30;0.30;;;;;;;8.93;100.00;99242.78;5039696;28;20124;-58
2024/03/13 07:48:47;;;;;;;0.15;0.15;;;;;;;8.96;100.00;99240.47;5027173;28;20037;-58
2024/03/13 07:51:14;;;;;;;0.20;0.20;;;;;;;8.57;100.00;99244.59;5064459;28;20554;-58
2024/03/13 07:53:42;;;;;;;0.20;0.20;;;;;;;8.95;100.00;99238.81;5033563;28;20072;-58
2024/03/13 07:56:09;;;;;;;0.38;0.38;;;;;;;8.78;100.00;99252.06;5037231;28;20045;-58
2024/03/13 07:58:36;;;;;;;0.20;0.20;;;;;;;8.93;100.00;99253.47;5038397;28;20499;-59
2024/03/13 08:01:05;;;;;;;0.30;0.30;;;;;;;9.00;100.00;99249.63;5037583;28;20053;-58
2024/03/13 08:03:33;;;;;;;0.20;0.20;;;;;;;9.23;100.00;99254.19;5073390;28;20036;-58
2024/03/13 08:06:00;;;;;;;0.20;0.20;;;;;;;9.39;100.00;99251.88;5041544;28;20041;-58
2024/03/13 08:08:27;;;;;;;0.30;0.30;;;;;;;9.40;100.00;99258.84;5034845;28;20041;-58
2024/03/13 08:10:54;;;;;;;0.30;0.30;;;;;;;9.33;100.00;99264.28;5035558;28;20410;-58
2024/03/13 08:13:21;;;;;;;0.20;0.20;;;;;;;9.05;100.00;99262.31;5039769;28;20041;-62
2024/03/13 08:15:48;;;;;;;0.32;0.32;;;;;;;9.48;100.00;99266.50;5022366;28;20393;-58
2024/03/13 08:18:19;;;;;;;0.20;0.20;;;;;;;9.65;100.00;99271.94;5038370;28;20355;-58
2024/03/13 08:20:48;;;;;;;0.30;0.30;;;;;;;9.98;100.00;99273.97;5040504;28;20044;-58
2024/03/13 08:23:16;;;;;;;0.22;0.22;;;;;;;10.04;100.00;99275.72;5034655;28;20574;-58
2024/03/13 08:25:44;;;;;;;0.20;0.20;;;;;;;10.11;100.00;99276.38;5032443;28;20047;-58
2024/03/13 08:28:11;;;;;;;0.20;0.20;;;;;;;10.07;100.00;99279.78;5063435;28;20070;-58
2024/03/13 08:30:39;;;;;;;0.20;0.20;;;;;;;10.41;100.00;99280.72;5041814;28;20131;-58
2024/03/13 08:33:07;;;;;;;0.20;0.20;;;;;;;10.42;100.00;99277.00;5067049;28;20114;-58
2024/03/13 08:35:34;;;;;;;0.30;0.30;;;;;;;10.08;100.00;99284.91;5039073;28;20068;-58
2024/03/13 08:38:01;;;;;;;0.20;0.20;;;;;;;10.06;100.00;99286.16;5030774;28;20037;-58
2024/03/13 08:40:28;;;;;;;0.30;0.30;;;;;;;10.46;100.00;99286.19;5061877;28;20126;-58
2024/03/13 08:42:58;;;;;;;0.20;0.20;;;;;;;10.78;100.00;99286.47;5027739;28;20068;-58
2024/03/13 08:45:25;;;;;;;0.25;0.25;;;;;;;10.62;100.00;99286.44;5019756;28;20071;-58
2024/03/13 08:47:53;;;;;;;0.20;0.20;;;;;;;10.96;100.00;99293.47;5037914;28;20041;-58
2024/03/13 08:50:20;;;;;;;0.20;0.20;;;;;;;10.42;100.00;99293.06;5028968;28;20045;-58
2024/03/13 08:52:48;;;;;;;0.20;0.20;;;;;;;10.06;100.00;99292.34;5029891;28;20055;-58
2024/03/13 08:55:17;;;;;;;0.20;0.20;;;;;;;9.89;100.00;99300.31;5033266;28;20330;-58
2024/03/13 08:57:44;;;;;;;0.30;0.30;;;;;;;10.41;100.00;99291.44;5038046;28;20083;-58
2024/03/13 09:00:12;;;;;;;0.20;0.20;;;;;;;10.64;100.00;99295.88;5048502;28;20053;-58
2024/03/13 09:02:39;;;;;;;0.30;0.30;;;;;;;10.66;100.00;99303.66;5042745;28;20056;-58
2024/03/13 09:05:07;;;;;;;0.20;0.20;;;;;;;10.74;100.00;99300.59;5042758;28;20075;-58
2024/03/13 09:07:34;;;;;;;0.20;0.20;;;;;;;10.65;100.00;99302.84;5020753;28;20074;-58
2024/03/13 09:10:01;;;;;;;0.10;0.10;;;;;;;10.64;100.00;99303.13;5045380;28;20127;-58
2024/03/13 09:12:29;;;;;;;0.17;0.17;;;;;;;10.51;100.00;99306.91;5033150;28;20076;-59
2024/03/13 09:14:56;;;;;;;0.20;0.20;;;;;;;10.50;100.00;99305.25;5039656;28;20040;-59
2024/03/13 09:17:24;;;;;;;0.15;0.15;;;;;;;10.41;100.00;99310.22;5037484;28;20124;-58
2024/03/13 09:19:51;;;;;;;0.20;0.20;;;;;;;10.45;100.00;99308.66;5036685;28;20150;-59
2024/03/13 09:22:20;;;;;;;0.20;0.20;;;;;;;10.68;100.00;99306.91;5036349;28;20094;-59
2024/03/13 09:24:47;;;;;;;0.20;0.20;;;;;;;10.79;100.00;99308.75;5033464;28;20036;-59
2024/03/13 09:27:14;;;;;;;0.20;0.20;;;;;;;10.87;100.00;99305.66;5030319;28;20135;-58
2024/03/13 09:29:40;;;;;;;0.20;0.20;;;;;;;11.16;100.00;99308.28;5010495;28;20136;-59
2024/03/13 09:32:07;;;;;;;0.20;0.20;;;;;;;10.88;100.00;99314.50;5030445;28;20110;-58
2024/03/13 09:34:35;;;;;;;0.20;0.20;;;;;;;10.83;100.00;99320.59;5030878;28;20048;-59
2024/03/13 09:37:04;;;;;;;0.10;0.10;;;;;;;11.09;100.00;99315.66;5027880;28;20049;-59
2024/03/13 09:39:31;;;;;;;0.20;0.20;;;;;;;10.75;100.00;99312.94;5035921;28;20083;-59
2024/03/13 09:41:58;;;;;;;0.20;0.20;;;;;;;11.25;100.00;99312.16;5060675;28;20141;-59
2024/03/13 09:44:26;;;;;;;0.20;0.20;;;;;;;11.15;100.00;99312.81;5032605;28;20064;-60
2024/03/13 09:46:53;;;;;;;0.20;0.20;;;;;;;11.27;100.00;99312.72;5034520;28;20123;-58
2024/03/13 09:49:20;;;;;;;0.20;0.20;;;;;;;11.58;100.00;99316.69;5037022;28;20055;-59
2024/03/13 09:51:47;;;;;;;0.20;0.20;;;;;;;11.55;100.00;99319.84;5035290;28;20041;-58
2024/03/13 09:54:16;;;;;;;0.20;0.20;;;;;;;11.64;100.00;99318.38;5056370;28;20507;-60
2024/03/13 09:56:45;;;;;;;0.20;0.20;;;;;;;11.63;100.00;99321.31;5024683;28;20047;-59
2024/03/13 09:59:12;;;;;;;0.10;0.10;;;;;;;11.39;100.00;99328.75;5022858;28;20119;-59
2024/03/13 10:01:39;;;;;;;0.20;0.20;;;;;;;11.55;100.00;99329.78;5046217;28;20767;-58
2024/03/13 10:04:11;;;;;;;0.20;0.20;;;;;;;11.57;100.00;99333.84;5035389;28;20045;-58
2024/03/13 10:06:39;;;;;;;0.10;0.10;;;;;;;11.62;100.00;99327.75;5033538;28;20041;-59
2024/03/13 10:09:12;;;;;;;0.10;0.10;;;;;;;11.50;100.00;99329.72;5025325;28;20052;-59
2024/03/13 10:11:41;;;;;;;0.10;0.10;;;;;;;11.42;100.00;99339.78;5035753;28;20040;-58
2024/03/13 10:14:09;;;;;;;0.20;0.20;;;;;;;11.39;100.00;99332.25;5039796;28;20118;-58
2024/03/13 10:16:36;;;;;;;0.20;0.20;;;;;;;11.39;100.00;99334.94;5041650;28;20040;-58
2024/03/13 10:19:04;;;;;;;0.10;0.10;;;;;;;11.44;100.00;99332.31;5035870;28;20102;-58
2024/03/13 10:21:31;;;;;;;0.20;0.20;;;;;;;11.57;100.00;99335.72;5034809;28;20487;-58
2024/03/13 10:23:59;;;;;;;0.20;0.20;;;;;;;11.78;100.00;99329.59;5036664;28;20106;-58
2024/03/13 10:26:26;;;;;;;0.13;0.13;;;;;;;12.38;100.00;99329.81;5041846;28;20091;-58
2024/03/13 10:28:53;;;;;;;0.10;0.10;;;;;;;12.62;100.00;99324.97;5033243;28;20576;-58
2024/03/13 10:31:20;;;;;;;0.20;0.20;;;;;;;13.00;100.00;99329.34;5031797;28;20047;-58
2024/03/13 10:33:49;;;;;;;0.10;0.10;;;;;;;13.02;100.00;99329.91;5031062;28;20041;-58
2024/03/13 10:36:17;;;;;;;0.13;0.13;;;;;;;13.07;100.00;99339.91;5030436;28;20495;-59
2024/03/13 10:38:46;;;;;;;0.10;0.10;;;;;;;12.85;100.00;99337.28;5062527;28;20045;-58
2024/03/13 10:41:14;;;;;;;0.10;0.10;;;;;;;12.99;100.00;99341.19;5028653;28;23760;-58
2024/03/13 10:43:42;;;;;;;0.10;0.10;;;;;;;13.11;100.00;99343.72;5032589;28;20491;-58
2024/03/13 10:46:10;;;;;;;0.10;0.10;;;;;;;13.16;100.00;99341.88;5027915;28;20052;-59
2024/03/13 10:48:38;;;;;;;0.10;0.10;;;;;;;13.17;100.00;99348.06;5037608;28;20040;-59
2024/03/13 10:51:06;;;;;;;0.10;0.10;;;;;;;13.23;100.00;99351.59;5016593;28;20056;-58
2024/03/13 10:53:33;;;;;;;0.10;0.10;;;;;;;13.11;100.00;99355.31;5037239;28;20055;-58
2024/03/13 10:56:00;;;;;;;0.10;0.10;;;;;;;13.14;100.00;99349.41;5038824;28;20086;-58
2024/03/13 10:58:27;;;;;;;0.10;0.10;;;;;;;13.12;100.00;99351.53;5036933;28;20136;-59
2024/03/13 11:00:55;;;;;;;0.10;0.10;;;;;;;12.70;100.00;99349.53;5035055;28;20063;-58
2024/03/13 11:03:22;;;;;;;0.10;0.10;;;;;;;12.86;100.00;99337.06;5031550;28;20559;-58
2024/03/13 11:05:50;;;;;;;0.10;0.10;;;;;;;12.56;100.00;99336.75;5032498;28;20069;-58
2024/03/13 11:08:18;;;;;;;0.10;0.10;;;;;;;12.53;100.00;99335.38;5063229;28;20179;-58
2024/03/13 11:10:46;;;;;;;0.10;0.10;;;;;;;12.63;100.00;99338.16;5034541;28;20075;-58
2024/03/13 11:13:13;;;;;;;0.10;0.10;;;;;;;13.23;100.00;99330.09;5035390;28;20487;-58
2024/03/13 11:15:40;;;;;;;0.10;0.10;;;;;;;13.56;100.00;99335.22;5038243;28;20123;-58
2024/03/13 11:18:09;;;;;;;0.17;0.17;;;;;;;13.65;100.00;99338.22;5032578;28;20068;-58
2024/03/13 11:20:37;;;;;;;0.10;0.10;;;;;;;13.87;100.00;99340.78;5037153;28;20067;-58
2024/03/13 11:23:05;;;;;;;0.10;0.10;;;;;;;13.95;100.00;99339.47;5037717;28;20075;-58
2024/03/13 11:25:32;;;;;;;0.10;0.10;;;;;;;13.71;100.00;99333.69;5037965;28;20562;-58
2024/03/13 11:27:59;;;;;;;0.10;0.10;;;;;;;13.47;100.00;99334.06;5029481;28;20041;-58
2024/03/13 11:30:28;;;;;;;0.10;0.10;;;;;;;13.45;100.00;99341.59;5017028;28;20047;-58
2024/03/13 11:32:56;;;;;;;0.10;0.10;;;;;;;13.53;100.00;99329.56;5034328;28;20064;-58
2024/03/13 11:35:23;;;;;;;0.10;0.10;;;;;;;13.68;100.00;99336.88;5041111;28;20053;-58
2024/03/13 11:37:50;;;;;;;0.10;0.10;;;;;;;13.62;100.00;99337.94;5034484;28;20044;-58
2024/03/13 11:40:17;;;;;;;0.10;0.10;;;;;;;13.36;100.00;99329.69;5035071;28;20502;-58
2024/03/13 11:42:44;;;;;;;0.10;0.10;;;;;;;12.97;100.00;99327.19;5030606;28;20047;-58
2024/03/13 11:45:15;;;;;;;0.10;0.10;;;;;;;12.98;100.00;99323.44;5044014;28;20128;-58
2024/03/13 11:47:43;;;;;;;0.10;0.10;;;;;;;13.13;100.00;99320.88;5041333;28;20045;-58
2024/03/13 11:50:13;;;;;;;0.10;0.10;;;;;;;13.09;100.00;99330.53;5029726;28;20094;-58
2024/03/13 11:53:04;;;;;;;0.10;0.10;;;;;;;13.08;100.00;99323.53;5068323;28;20039;-58